sensor_id;sensor_type;location;lat;lon;timestamp;pressure;altitude;pressure_sealevel;temperature;humidity
82951;BME280;72737;53.332;6.514;2024-02-14T00:00:57;101146.94;;;15.87;56.98
82951;BME280;72737;53.332;6.514;2024-02-14T00:03:23;101143.66;;;15.85;56.84
82951;BME280;72737;53.332;6.514;2024-02-14T00:05:49;101137.97;;;15.82;56.34
82951;BME280;72737;53.332;6.514;2024-02-14T00:08:17;101135.75;;;15.84;56.72
82951;BME280;72737;53.332;6.514;2024-02-14T00:10:45;101145.09;;;15.83;57.16
82951;BME280;72737;53.332;6.514;2024-02-14T00:13:12;101134.69;;;15.80;57.22
82951;BME280;72737;53.332;6.514;2024-02-14T00:15:38;101132.47;;;15.82;57.04
82951;BME280;72737;53.332;6.514;2024-02-14T00:18:04;101126.56;;;15.75;57.01
82951;BME280;72737;53.332;6.514;2024-02-14T00:20:29;101119.38;;;15.79;57.18
82951;BME280;72737;53.332;6.514;2024-02-14T00:22:54;101121.59;;;15.77;56.60
82951;BME280;72737;53.332;6.514;2024-02-14T00:25:20;101112.28;;;15.78;56.58
82951;BME280;72737;53.332;6.514;2024-02-14T00:27:46;101094.13;;;15.82;57.10
82951;BME280;72737;53.332;6.514;2024-02-14T00:30:12;101099.41;;;15.78;57.02
82951;BME280;72737;53.332;6.514;2024-02-14T00:32:37;101090.41;;;15.92;56.41
82951;BME280;72737;53.332;6.514;2024-02-14T00:35:04;101078.13;;;15.89;56.18
82951;BME280;72737;53.332;6.514;2024-02-14T00:37:29;101082.63;;;15.99;56.06
82951;BME280;72737;53.332;6.514;2024-02-14T00:39:58;101094.97;;;15.96;56.19
82951;BME280;72737;53.332;6.514;2024-02-14T00:42:23;101081.81;;;15.98;56.30
82951;BME280;72737;53.332;6.514;2024-02-14T00:44:48;101091.13;;;15.97;56.53
82951;BME280;72737;53.332;6.514;2024-02-14T00:47:14;101073.88;;;15.97;56.20
82951;BME280;72737;53.332;6.514;2024-02-14T00:49:39;101076.91;;;15.95;56.39
82951;BME280;72737;53.332;6.514;2024-02-14T00:52:05;101070.09;;;15.93;56.18
82951;BME280;72737;53.332;6.514;2024-02-14T00:54:32;101069.81;;;15.94;56.10
82951;BME280;72737;53.332;6.514;2024-02-14T00:56:57;101057.22;;;15.93;55.95
82951;BME280;72737;53.332;6.514;2024-02-14T00:59:22;101058.94;;;15.89;56.19
82951;BME280;72737;53.332;6.514;2024-02-14T01:01:48;101055.38;;;15.88;56.60
82951;BME280;72737;53.332;6.514;2024-02-14T01:04:14;101052.41;;;15.85;56.13
82951;BME280;72737;53.332;6.514;2024-02-14T01:06:39;101037.28;;;15.74;57.09
82951;BME280;72737;53.332;6.514;2024-02-14T01:09:04;101041.31;;;15.76;56.52
82951;BME280;72737;53.332;6.514;2024-02-14T01:11:30;101046.44;;;15.83;57.16
82951;BME280;72737;53.332;6.514;2024-02-14T01:13:55;101033.38;;;15.75;56.50
82951;BME280;72737;53.332;6.514;2024-02-14T01:16:20;101036.88;;;15.80;56.59
82951;BME280;72737;53.332;6.514;2024-02-14T01:18:46;101019.03;;;15.64;56.96
82951;BME280;72737;53.332;6.514;2024-02-14T01:21:11;101030.56;;;15.80;56.61
82951;BME280;72737;53.332;6.514;2024-02-14T01:23:37;101030.56;;;15.80;56.45
82951;BME280;72737;53.332;6.514;2024-02-14T01:26:03;101025.31;;;15.83;56.94
82951;BME280;72737;53.332;6.514;2024-02-14T01:28:28;101019.31;;;15.81;57.09
82951;BME280;72737;53.332;6.514;2024-02-14T01:30:54;101007.81;;;15.79;56.43
82951;BME280;72737;53.332;6.514;2024-02-14T01:33:22;101010.06;;;15.77;56.37
82951;BME280;72737;53.332;6.514;2024-02-14T01:35:47;101009.78;;;15.79;56.63
82951;BME280;72737;53.332;6.514;2024-02-14T01:38:13;101010.28;;;15.81;56.58
82951;BME280;72737;53.332;6.514;2024-02-14T01:40:42;101007.13;;;15.74;56.72
82951;BME280;72737;53.332;6.514;2024-02-14T01:43:07;100992.81;;;15.77;56.92
82951;BME280;72737;53.332;6.514;2024-02-14T01:45:33;100991.78;;;15.73;56.42
82951;BME280;72737;53.332;6.514;2024-02-14T01:47:59;100982.94;;;15.62;56.79
82951;BME280;72737;53.332;6.514;2024-02-14T01:50:24;100988.13;;;15.64;56.66
82951;BME280;72737;53.332;6.514;2024-02-14T01:52:58;100972.19;;;15.66;56.71
82951;BME280;72737;53.332;6.514;2024-02-14T01:55:24;100979.19;;;15.72;56.92
82951;BME280;72737;53.332;6.514;2024-02-14T01:57:58;100973.53;;;15.68;56.87
82951;BME280;72737;53.332;6.514;2024-02-14T02:00:25;100979.00;;;15.68;56.71
82951;BME280;72737;53.332;6.514;2024-02-14T02:02:52;100982.03;;;15.67;56.86
82951;BME280;72737;53.332;6.514;2024-02-14T02:05:19;100972.69;;;15.68;56.75
82951;BME280;72737;53.332;6.514;2024-02-14T02:07:45;100974.34;;;15.69;56.82
82951;BME280;72737;53.332;6.514;2024-02-14T02:10:13;100975.53;;;15.63;57.03
82951;BME280;72737;53.332;6.514;2024-02-14T02:12:39;100957.41;;;15.48;57.51
82951;BME280;72737;53.332;6.514;2024-02-14T02:15:08;100958.38;;;15.38;57.47
82951;BME280;72737;53.332;6.514;2024-02-14T02:17:38;100952.75;;;15.49;57.28
82951;BME280;72737;53.332;6.514;2024-02-14T02:20:04;100962.50;;;15.55;57.16
82951;BME280;72737;53.332;6.514;2024-02-14T02:22:32;100965.47;;;15.58;57.18
82951;BME280;72737;53.332;6.514;2024-02-14T02:25:03;100964.13;;;15.56;57.77
82951;BME280;72737;53.332;6.514;2024-02-14T02:27:32;100958.38;;;15.57;57.71
82951;BME280;72737;53.332;6.514;2024-02-14T02:29:57;100955.16;;;15.50;57.75
82951;BME280;72737;53.332;6.514;2024-02-14T02:32:22;100954.34;;;15.50;57.79
82951;BME280;72737;53.332;6.514;2024-02-14T02:34:48;100948.59;;;15.51;58.25
82951;BME280;72737;53.332;6.514;2024-02-14T02:37:13;100942.22;;;15.56;58.05
82951;BME280;72737;53.332;6.514;2024-02-14T02:39:39;100924.81;;;15.46;57.96
82951;BME280;72737;53.332;6.514;2024-02-14T02:42:04;100936.16;;;15.59;57.98
82951;BME280;72737;53.332;6.514;2024-02-14T02:44:31;100942.75;;;15.58;58.19
82951;BME280;72737;53.332;6.514;2024-02-14T02:46:56;100922.84;;;15.52;58.09
82951;BME280;72737;53.332;6.514;2024-02-14T02:49:22;100937.34;;;15.53;57.97
82951;BME280;72737;53.332;6.514;2024-02-14T02:51:47;100932.91;;;15.57;57.67
82951;BME280;72737;53.332;6.514;2024-02-14T02:54:13;100934.06;;;15.51;57.93
82951;BME280;72737;53.332;6.514;2024-02-14T02:56:39;100933.25;;;15.50;58.34
82951;BME280;72737;53.332;6.514;2024-02-14T02:59:06;100929.69;;;15.50;58.41
82951;BME280;72737;53.332;6.514;2024-02-14T03:01:36;100897.91;;;15.35;58.10
82951;BME280;72737;53.332;6.514;2024-02-14T03:04:08;100918.91;;;15.39;58.16
82951;BME280;72737;53.332;6.514;2024-02-14T03:06:33;100924.09;;;15.41;58.23
82951;BME280;72737;53.332;6.514;2024-02-14T03:09:00;100922.03;;;15.52;58.23
82951;BME280;72737;53.332;6.514;2024-02-14T03:11:27;100925.28;;;15.54;58.46
82951;BME280;72737;53.332;6.514;2024-02-14T03:13:52;100918.69;;;15.55;58.30
82951;BME280;72737;53.332;6.514;2024-02-14T03:16:17;100921.78;;;15.48;58.09
82951;BME280;72737;53.332;6.514;2024-02-14T03:18:43;100919.44;;;15.41;58.27
82951;BME280;72737;53.332;6.514;2024-02-14T03:21:09;100911.75;;;15.43;58.83
82951;BME280;72737;53.332;6.514;2024-02-14T03:23:34;100913.06;;;15.46;58.76
82951;BME280;72737;53.332;6.514;2024-02-14T03:26:00;100900.44;;;15.31;58.62
82951;BME280;72737;53.332;6.514;2024-02-14T03:28:26;100897.78;;;15.26;58.39
82951;BME280;72737;53.332;6.514;2024-02-14T03:30:52;100915.16;;;15.35;58.95
82951;BME280;72737;53.332;6.514;2024-02-14T03:33:18;100909.91;;;15.39;58.23
82951;BME280;72737;53.332;6.514;2024-02-14T03:35:43;100909.69;;;15.35;58.24
82951;BME280;72737;53.332;6.514;2024-02-14T03:38:08;100903.38;;;15.35;58.32
82951;BME280;72737;53.332;6.514;2024-02-14T03:40:35;100907.38;;;15.42;58.69
82951;BME280;72737;53.332;6.514;2024-02-14T03:43:02;100901.97;;;15.37;58.55
82951;BME280;72737;53.332;6.514;2024-02-14T03:45:28;100888.78;;;15.39;58.96
82951;BME280;72737;53.332;6.514;2024-02-14T03:47:57;100878.72;;;15.21;58.97
82951;BME280;72737;53.332;6.514;2024-02-14T03:50:23;100910.09;;;15.42;58.99
82951;BME280;72737;53.332;6.514;2024-02-14T03:52:49;100900.72;;;15.30;58.90
82951;BME280;72737;53.332;6.514;2024-02-14T03:55:14;100910.19;;;15.37;58.89
82951;BME280;72737;53.332;6.514;2024-02-14T03:57:42;100913.16;;;15.41;58.62
82951;BME280;72737;53.332;6.514;2024-02-14T04:00:11;100902.44;;;15.26;59.44
82951;BME280;72737;53.332;6.514;2024-02-14T04:02:36;100910.50;;;15.36;59.38
82951;BME280;72737;53.332;6.514;2024-02-14T04:05:02;100911.59;;;15.35;59.63
82951;BME280;72737;53.332;6.514;2024-02-14T04:07:27;100910.28;;;15.32;59.57
82951;BME280;72737;53.332;6.514;2024-02-14T04:09:53;100904.06;;;15.27;59.37
82951;BME280;72737;53.332;6.514;2024-02-14T04:12:19;100921.34;;;15.41;59.24
82951;BME280;72737;53.332;6.514;2024-02-14T04:14:45;100902.38;;;15.31;59.30
82951;BME280;72737;53.332;6.514;2024-02-14T04:17:12;100918.81;;;15.44;59.28
82951;BME280;72737;53.332;6.514;2024-02-14T04:19:39;100925.34;;;15.49;59.00
82951;BME280;72737;53.332;6.514;2024-02-14T04:22:10;100920.47;;;15.45;59.22
82951;BME280;72737;53.332;6.514;2024-02-14T04:24:35;100920.38;;;15.51;58.92
82951;BME280;72737;53.332;6.514;2024-02-14T04:27:01;100915.22;;;15.49;59.64
82951;BME280;72737;53.332;6.514;2024-02-14T04:29:29;100925.28;;;15.54;59.38
82951;BME280;72737;53.332;6.514;2024-02-14T04:31:56;100926.91;;;15.55;59.40
82951;BME280;72737;53.332;6.514;2024-02-14T04:34:21;100927.50;;;15.52;59.60
82951;BME280;72737;53.332;6.514;2024-02-14T04:36:47;100922.28;;;15.50;59.02
82951;BME280;72737;53.332;6.514;2024-02-14T04:39:12;100932.91;;;15.57;58.94
82951;BME280;72737;53.332;6.514;2024-02-14T04:41:37;100929.06;;;15.58;59.10
82951;BME280;72737;53.332;6.514;2024-02-14T04:44:04;100930.06;;;15.62;58.80
82951;BME280;72737;53.332;6.514;2024-02-14T04:46:33;100934.44;;;15.63;58.84
82951;BME280;72737;53.332;6.514;2024-02-14T04:49:03;100936.16;;;15.59;59.54
82951;BME280;72737;53.332;6.514;2024-02-14T04:51:29;100925.84;;;15.51;59.49
82951;BME280;72737;53.332;6.514;2024-02-14T04:53:55;100936.75;;;15.56;59.28
82951;BME280;72737;53.332;6.514;2024-02-14T04:56:24;100932.09;;;15.56;59.36
82951;BME280;72737;53.332;6.514;2024-02-14T04:58:49;100947.13;;;15.59;59.55
82951;BME280;72737;53.332;6.514;2024-02-14T05:01:15;100947.13;;;15.59;59.45
82951;BME280;72737;53.332;6.514;2024-02-14T05:03:41;100945.50;;;15.58;59.69
82951;BME280;72737;53.332;6.514;2024-02-14T05:06:07;100950.44;;;15.56;59.85
82951;BME280;72737;53.332;6.514;2024-02-14T05:08:32;100953.19;;;15.56;59.66
82951;BME280;72737;53.332;6.514;2024-02-14T05:10:57;100957.56;;;15.57;59.64
82951;BME280;72737;53.332;6.514;2024-02-14T05:13:23;100950.97;;;15.58;59.28
82951;BME280;72737;53.332;6.514;2024-02-14T05:15:49;100950.34;;;15.61;59.21
82951;BME280;72737;53.332;6.514;2024-02-14T05:18:16;100953.63;;;15.63;59.58
82951;BME280;72737;53.332;6.514;2024-02-14T05:20:41;100953.00;;;15.66;59.20
82951;BME280;72737;53.332;6.514;2024-02-14T05:23:07;100950.88;;;15.63;59.53
82951;BME280;72737;53.332;6.514;2024-02-14T05:25:33;100951.97;;;15.62;59.57
82951;BME280;72737;53.332;6.514;2024-02-14T05:27:58;100964.97;;;15.70;59.57
82951;BME280;72737;53.332;6.514;2024-02-14T05:30:26;100947.63;;;15.61;59.58
82951;BME280;72737;53.332;6.514;2024-02-14T05:32:52;100968.78;;;15.74;59.67
82951;BME280;72737;53.332;6.514;2024-02-14T05:35:18;100961.94;;;15.71;59.87
82951;BME280;72737;53.332;6.514;2024-02-14T05:37:44;100967.03;;;15.78;59.23
82951;BME280;72737;53.332;6.514;2024-02-14T05:40:16;100979.63;;;15.79;59.48
82951;BME280;72737;53.332;6.514;2024-02-14T05:42:41;100980.66;;;15.83;59.57
82951;BME280;72737;53.332;6.514;2024-02-14T05:45:07;100981.75;;;15.82;59.76
82951;BME280;72737;53.332;6.514;2024-02-14T05:47:35;100979.84;;;15.82;60.05
82951;BME280;72737;53.332;6.514;2024-02-14T05:50:00;100957.81;;;15.74;59.64
82951;BME280;72737;53.332;6.514;2024-02-14T05:52:27;100965.94;;;15.79;59.68
82951;BME280;72737;53.332;6.514;2024-02-14T05:54:52;100979.75;;;15.87;59.78
82951;BME280;72737;53.332;6.514;2024-02-14T05:57:19;100980.03;;;15.86;60.15
82951;BME280;72737;53.332;6.514;2024-02-14T05:59:44;100982.78;;;15.86;60.11
82951;BME280;72737;53.332;6.514;2024-02-14T06:02:10;100986.13;;;15.83;60.24
82951;BME280;72737;53.332;6.514;2024-02-14T06:04:35;100991.00;;;15.86;60.53
82951;BME280;72737;53.332;6.514;2024-02-14T06:07:01;100997.50;;;15.90;59.89
82951;BME280;72737;53.332;6.514;2024-02-14T06:09:26;100988.88;;;15.83;60.20
82951;BME280;72737;53.332;6.514;2024-02-14T06:11:52;100985.81;;;15.84;60.49
82951;BME280;72737;53.332;6.514;2024-02-14T06:14:18;100996.00;;;15.98;59.79
82951;BME280;72737;53.332;6.514;2024-02-14T06:16:43;101001.97;;;16.00;60.03
82951;BME280;72737;53.332;6.514;2024-02-14T06:19:09;101008.59;;;15.99;60.21
82951;BME280;72737;53.332;6.514;2024-02-14T06:21:35;101001.88;;;15.91;60.41
82951;BME280;72737;53.332;6.514;2024-02-14T06:24:01;101020.28;;;16.04;59.84
82951;BME280;72737;53.332;6.514;2024-02-14T06:26:29;101007.78;;;15.98;59.99
82951;BME280;72737;53.332;6.514;2024-02-14T06:28:55;101021.59;;;16.07;60.14
82951;BME280;72737;53.332;6.514;2024-02-14T06:31:22;101013.19;;;16.03;60.03
82951;BME280;72737;53.332;6.514;2024-02-14T06:33:47;101030.03;;;16.10;60.20
82951;BME280;72737;53.332;6.514;2024-02-14T06:36:13;101025.06;;;16.12;59.60
82951;BME280;72737;53.332;6.514;2024-02-14T06:38:38;101035.41;;;16.15;60.25
82951;BME280;72737;53.332;6.514;2024-02-14T06:41:05;101033.50;;;16.16;59.74
82951;BME280;72737;53.332;6.514;2024-02-14T06:43:31;101026.59;;;16.18;59.99
82951;BME280;72737;53.332;6.514;2024-02-14T06:45:56;101020.69;;;16.11;59.96
82951;BME280;72737;53.332;6.514;2024-02-14T06:48:22;101037.56;;;16.18;60.27
82951;BME280;72737;53.332;6.514;2024-02-14T06:50:49;101030.75;;;16.16;59.87
82951;BME280;72737;53.332;6.514;2024-02-14T06:53:15;101045.72;;;16.23;59.99
82951;BME280;72737;53.332;6.514;2024-02-14T06:55:41;101047.34;;;16.24;60.00
82951;BME280;72737;53.332;6.514;2024-02-14T06:58:06;101045.09;;;16.26;59.76
82951;BME280;72737;53.332;6.514;2024-02-14T07:00:33;101048.34;;;16.28;59.40
82951;BME280;72737;53.332;6.514;2024-02-14T07:02:58;101050.69;;;16.35;58.78
82951;BME280;72737;53.332;6.514;2024-02-14T07:05:24;101055.38;;;16.35;58.09
82951;BME280;72737;53.332;6.514;2024-02-14T07:07:49;101069.28;;;16.38;57.63
82951;BME280;72737;53.332;6.514;2024-02-14T07:10:15;101067.84;;;16.41;57.56
82951;BME280;72737;53.332;6.514;2024-02-14T07:12:40;101070.59;;;16.41;57.46
82951;BME280;72737;53.332;6.514;2024-02-14T07:15:07;101072.22;;;16.42;57.37
82951;BME280;72737;53.332;6.514;2024-02-14T07:17:33;101074.69;;;16.29;57.41
82951;BME280;72737;53.332;6.514;2024-02-14T07:19:59;101072.75;;;16.44;57.49
82951;BME280;72737;53.332;6.514;2024-02-14T07:22:24;101084.31;;;16.41;57.09
82951;BME280;72737;53.332;6.514;2024-02-14T07:24:56;101077.22;;;16.40;57.00
82951;BME280;72737;53.332;6.514;2024-02-14T07:27:21;101088.41;;;16.43;57.40
82951;BME280;72737;53.332;6.514;2024-02-14T07:29:49;101068.16;;;16.25;57.07
82951;BME280;72737;53.332;6.514;2024-02-14T07:32:14;101085.84;;;16.47;57.13
82951;BME280;72737;53.332;6.514;2024-02-14T07:34:40;101100.69;;;16.46;56.83
82951;BME280;72737;53.332;6.514;2024-02-14T07:37:06;101102.59;;;16.45;56.68
82951;BME280;72737;53.332;6.514;2024-02-14T07:39:33;101105.06;;;16.47;57.10
82951;BME280;72737;53.332;6.514;2024-02-14T07:42:03;101104.25;;;16.46;57.45
82951;BME280;72737;53.332;6.514;2024-02-14T07:44:28;101107.50;;;16.48;57.52
82951;BME280;72737;53.332;6.514;2024-02-14T07:46:57;101109.53;;;16.43;57.63
82951;BME280;72737;53.332;6.514;2024-02-14T07:49:22;101116.31;;;16.45;57.93
82951;BME280;72737;53.332;6.514;2024-02-14T07:51:48;101118.88;;;16.42;57.71
82951;BME280;72737;53.332;6.514;2024-02-14T07:54:13;101119.88;;;16.46;57.67
82951;BME280;72737;53.332;6.514;2024-02-14T07:56:40;101114.50;;;16.41;58.12
82951;BME280;72737;53.332;6.514;2024-02-14T07:59:05;101113.69;;;16.40;57.83
82951;BME280;72737;53.332;6.514;2024-02-14T08:01:31;101130.03;;;16.45;57.64
82951;BME280;72737;53.332;6.514;2024-02-14T08:03:57;101117.94;;;16.33;58.24
82951;BME280;72737;53.332;6.514;2024-02-14T08:06:23;101107.69;;;16.24;58.23
82951;BME280;72737;53.332;6.514;2024-02-14T08:08:48;101104.13;;;16.05;58.80
82951;BME280;72737;53.332;6.514;2024-02-14T08:11:16;101117.47;;;16.12;58.66
82951;BME280;72737;53.332;6.514;2024-02-14T08:13:43;101123.06;;;16.20;58.61
82951;BME280;72737;53.332;6.514;2024-02-14T08:16:08;101112.81;;;16.12;58.46
82951;BME280;72737;53.332;6.514;2024-02-14T08:18:34;101127.56;;;16.30;58.00
82951;BME280;72737;53.332;6.514;2024-02-14T08:21:00;101126.44;;;16.17;58.49
82951;BME280;72737;53.332;6.514;2024-02-14T08:23:27;101135.69;;;16.21;58.35
82951;BME280;72737;53.332;6.514;2024-02-14T08:25:52;101110.16;;;16.07;58.29
82951;BME280;72737;53.332;6.514;2024-02-14T08:28:17;101115.09;;;16.05;58.67
82951;BME280;72737;53.332;6.514;2024-02-14T08:30:44;101133.19;;;16.06;58.87
82951;BME280;72737;53.332;6.514;2024-02-14T08:33:09;101130.56;;;16.15;58.95
82951;BME280;72737;53.332;6.514;2024-02-14T08:35:36;101129.25;;;16.12;58.52
82951;BME280;72737;53.332;6.514;2024-02-14T08:38:01;101137.09;;;16.19;58.92
82951;BME280;72737;53.332;6.514;2024-02-14T08:40:27;101140.66;;;16.19;58.25
82951;BME280;72737;53.332;6.514;2024-02-14T08:42:52;101139.31;;;16.17;58.21
82951;BME280;72737;53.332;6.514;2024-02-14T08:45:20;101147.84;;;16.15;58.45
82951;BME280;72737;53.332;6.514;2024-02-14T08:47:46;101138.41;;;16.21;58.51
82951;BME280;72737;53.332;6.514;2024-02-14T08:50:11;101142.28;;;16.20;58.44
82951;BME280;72737;53.332;6.514;2024-02-14T08:52:37;101141.94;;;16.08;59.32
82951;BME280;72737;53.332;6.514;2024-02-14T08:55:06;101138.34;;;15.94;59.27
82951;BME280;72737;53.332;6.514;2024-02-14T08:57:34;101147.50;;;16.03;59.46
82951;BME280;72737;53.332;6.514;2024-02-14T09:00:00;101146.94;;;15.87;59.41
82951;BME280;72737;53.332;6.514;2024-02-14T09:02:27;101143.69;;;15.67;60.07
82951;BME280;72737;53.332;6.514;2024-02-14T09:04:53;101153.22;;;15.69;59.98
82951;BME280;72737;53.332;6.514;2024-02-14T09:07:18;101157.84;;;15.74;59.80
82951;BME280;72737;53.332;6.514;2024-02-14T09:09:44;101149.16;;;15.67;59.95
82951;BME280;72737;53.332;6.514;2024-02-14T09:12:11;101159.09;;;15.63;60.52
82951;BME280;72737;53.332;6.514;2024-02-14T09:14:38;101158.66;;;15.51;60.40
82951;BME280;72737;53.332;6.514;2024-02-14T09:17:03;101158.56;;;15.61;60.17
82951;BME280;72737;53.332;6.514;2024-02-14T09:19:29;101170.13;;;15.58;60.39
82951;BME280;72737;53.332;6.514;2024-02-14T09:21:56;101155.50;;;15.43;60.19
82951;BME280;72737;53.332;6.514;2024-02-14T09:24:22;101170.31;;;15.80;59.35
82951;BME280;72737;53.332;6.514;2024-02-14T09:26:47;101178.47;;;15.85;59.04
82951;BME280;72737;53.332;6.514;2024-02-14T09:29:13;101162.91;;;15.80;59.69
82951;BME280;72737;53.332;6.514;2024-02-14T09:31:40;101175.19;;;15.64;60.11
82951;BME280;72737;53.332;6.514;2024-02-14T09:34:05;101174.34;;;15.69;59.88
82951;BME280;72737;53.332;6.514;2024-02-14T09:36:31;101177.00;;;15.74;59.48
82951;BME280;72737;53.332;6.514;2024-02-14T09:38:57;101171.53;;;15.74;59.41
82951;BME280;72737;53.332;6.514;2024-02-14T09:41:37;101176.19;;;15.73;59.87
82951;BME280;72737;53.332;6.514;2024-02-14T09:44:03;101177.31;;;15.72;59.80
82951;BME280;72737;53.332;6.514;2024-02-14T09:46:28;101174.63;;;15.67;60.02
82951;BME280;72737;53.332;6.514;2024-02-14T09:48:56;101181.50;;;15.65;59.73
82951;BME280;72737;53.332;6.514;2024-02-14T09:51:24;101174.56;;;15.72;59.97
82951;BME280;72737;53.332;6.514;2024-02-14T09:53:50;101182.38;;;15.60;59.85
82951;BME280;72737;53.332;6.514;2024-02-14T09:56:18;101187.44;;;15.72;59.64
82951;BME280;72737;53.332;6.514;2024-02-14T09:58:48;101191.50;;;15.74;59.89
82951;BME280;72737;53.332;6.514;2024-02-14T10:01:25;101203.41;;;15.65;59.79
82951;BME280;72737;53.332;6.514;2024-02-14T10:03:51;101195.34;;;15.55;59.98
82951;BME280;72737;53.332;6.514;2024-02-14T10:06:20;101197.44;;;15.63;60.26
82951;BME280;72737;53.332;6.514;2024-02-14T10:08:49;101202.59;;;15.64;59.94
82951;BME280;72737;53.332;6.514;2024-02-14T10:11:16;101203.88;;;15.72;60.15
82951;BME280;72737;53.332;6.514;2024-02-14T10:13:45;101203.44;;;15.83;59.92
82951;BME280;72737;53.332;6.514;2024-02-14T10:16:12;101197.44;;;15.63;60.02
82951;BME280;72737;53.332;6.514;2024-02-14T10:18:38;101206.09;;;15.70;60.11
82951;BME280;72737;53.332;6.514;2024-02-14T10:21:05;101212.44;;;15.65;60.15
82951;BME280;72737;53.332;6.514;2024-02-14T10:23:31;101189.88;;;15.50;60.07
82951;BME280;72737;53.332;6.514;2024-02-14T10:25:57;101207.47;;;15.49;60.43
82951;BME280;72737;53.332;6.514;2024-02-14T10:28:23;101216.06;;;15.61;60.19
82951;BME280;72737;53.332;6.514;2024-02-14T10:30:49;101221.22;;;15.86;59.85
82951;BME280;72737;53.332;6.514;2024-02-14T10:33:17;101228.34;;;15.87;59.71
82951;BME280;72737;53.332;6.514;2024-02-14T10:35:43;101225.59;;;15.68;60.04
82951;BME280;72737;53.332;6.514;2024-02-14T10:38:09;101229.78;;;15.61;60.88
82951;BME280;72737;53.332;6.514;2024-02-14T10:40:38;101211.44;;;15.37;60.74
82951;BME280;72737;53.332;6.514;2024-02-14T10:43:06;101218.97;;;15.69;60.42
82951;BME280;72737;53.332;6.514;2024-02-14T10:45:36;101229.03;;;15.55;60.76
82951;BME280;72737;53.332;6.514;2024-02-14T10:48:04;101225.88;;;15.43;60.94
82951;BME280;72737;53.332;6.514;2024-02-14T10:50:33;101214.22;;;15.56;60.27
82951;BME280;72737;53.332;6.514;2024-02-14T10:53:00;101214.03;;;15.48;60.63
82951;BME280;72737;53.332;6.514;2024-02-14T10:55:30;101234.16;;;15.62;60.28
82951;BME280;72737;53.332;6.514;2024-02-14T10:57:57;101235.25;;;15.61;60.07
82951;BME280;72737;53.332;6.514;2024-02-14T11:00:22;101238.38;;;15.54;60.72
82951;BME280;72737;53.332;6.514;2024-02-14T11:02:48;101232.00;;;15.59;60.40
82951;BME280;72737;53.332;6.514;2024-02-14T11:05:15;101235.84;;;15.58;60.21
82951;BME280;72737;53.332;6.514;2024-02-14T11:07:47;101233.63;;;15.60;60.29
82951;BME280;72737;53.332;6.514;2024-02-14T11:10:16;101233.13;;;15.58;60.25
82951;BME280;72737;53.332;6.514;2024-02-14T11:12:42;101230.25;;;15.68;60.24
82951;BME280;72737;53.332;6.514;2024-02-14T11:17:42;101234.69;;;15.64;60.45
82951;BME280;72737;53.332;6.514;2024-02-14T11:20:30;101227.25;;;15.64;60.33
82951;BME280;72737;53.332;6.514;2024-02-14T11:22:57;101227.63;;;15.58;60.27
82951;BME280;72737;53.332;6.514;2024-02-14T11:25:28;101234.44;;;15.60;59.97
82951;BME280;72737;53.332;6.514;2024-02-14T11:27:55;101225.81;;;15.72;59.88
82951;BME280;72737;53.332;6.514;2024-02-14T11:30:50;101235.25;;;15.61;59.94
82951;BME280;72737;53.332;6.514;2024-02-14T11:35:50;101186.19;;;15.40;59.74
82951;BME280;72737;53.332;6.514;2024-02-14T11:38:16;101225.81;;;15.72;60.20
82951;BME280;72737;53.332;6.514;2024-02-14T11:40:42;101226.16;;;15.65;60.09
82951;BME280;72737;53.332;6.514;2024-02-14T11:43:15;101229.22;;;15.64;60.15
82951;BME280;72737;53.332;6.514;2024-02-14T11:45:42;101231.94;;;15.64;59.94
82951;BME280;72737;53.332;6.514;2024-02-14T11:48:10;101237.44;;;15.64;60.44
82951;BME280;72737;53.332;6.514;2024-02-14T11:50:37;101229.66;;;15.47;60.40
82951;BME280;72737;53.332;6.514;2024-02-14T11:53:04;101233.63;;;15.60;60.03
82951;BME280;72737;53.332;6.514;2024-02-14T11:55:31;101236.38;;;15.60;60.37
82951;BME280;72737;53.332;6.514;2024-02-14T11:57:58;101211.81;;;15.50;60.14
82951;BME280;72737;53.332;6.514;2024-02-14T12:00:23;101220.63;;;15.46;60.43
82951;BME280;72737;53.332;6.514;2024-02-14T12:02:50;101215.22;;;15.41;60.74
82951;BME280;72737;53.332;6.514;2024-02-14T12:05:16;101238.00;;;15.61;60.40
82951;BME280;72737;53.332;6.514;2024-02-14T12:07:42;101232.22;;;15.62;60.20
82951;BME280;72737;53.332;6.514;2024-02-14T12:10:09;101227.50;;;15.68;59.99
82951;BME280;72737;53.332;6.514;2024-02-14T12:12:35;101214.59;;;15.44;60.26
82951;BME280;72737;53.332;6.514;2024-02-14T12:15:02;101227.50;;;15.44;60.53
82951;BME280;72737;53.332;6.514;2024-02-14T12:17:27;101223.78;;;15.59;60.37
82951;BME280;72737;53.332;6.514;2024-02-14T12:19:53;101218.91;;;15.51;60.40
82951;BME280;72737;53.332;6.514;2024-02-14T12:22:18;101233.41;;;15.56;60.87
82951;BME280;72737;53.332;6.514;2024-02-14T12:24:45;101226.53;;;15.59;60.68
82951;BME280;72737;53.332;6.514;2024-02-14T12:27:11;101229.22;;;15.64;60.31
82951;BME280;72737;53.332;6.514;2024-02-14T12:29:36;101219.78;;;15.51;60.63
82951;BME280;72737;53.332;6.514;2024-02-14T12:32:05;101224.69;;;15.54;60.75
82951;BME280;72737;53.332;6.514;2024-02-14T12:34:32;101217.56;;;15.53;60.70
82951;BME280;72737;53.332;6.514;2024-02-14T12:36:57;101218.47;;;15.43;60.88
82951;BME280;72737;53.332;6.514;2024-02-14T12:39:23;101204.78;;;15.43;60.66
82951;BME280;72737;53.332;6.514;2024-02-14T12:41:51;101227.03;;;15.61;60.18
82951;BME280;72737;53.332;6.514;2024-02-14T12:44:17;101197.38;;;15.44;60.28
82951;BME280;72737;53.332;6.514;2024-02-14T12:46:43;101228.81;;;15.52;60.71
82951;BME280;72737;53.332;6.514;2024-02-14T12:49:08;101221.63;;;15.56;61.02
82951;BME280;72737;53.332;6.514;2024-02-14T12:51:34;101217.06;;;15.46;60.63